createdAt,value
2023-02-12T00:08:16.179Z,100
2023-02-12T00:18:16.222Z,100
2023-02-12T00:28:16.264Z,100
2023-02-12T00:38:16.212Z,100
2023-02-12T00:48:16.186Z,100
2023-02-12T00:58:18.771Z,100
2023-02-12T01:08:16.225Z,100
2023-02-12T01:18:16.246Z,100
2023-02-12T01:28:16.256Z,100
2023-02-12T01:38:16.283Z,100
2023-02-12T01:48:16.323Z,100
2023-02-12T01:58:16.379Z,100
2023-02-12T02:08:16.256Z,100
2023-02-12T02:18:16.331Z,100
2023-02-12T02:28:16.335Z,100
2023-02-12T02:38:16.334Z,100
2023-02-12T02:48:16.308Z,100
2023-02-12T02:58:16.357Z,100
2023-02-12T03:08:16.500Z,100
2023-02-12T03:18:16.608Z,100
2023-02-12T03:28:16.421Z,100
2023-02-12T03:38:16.393Z,100
2023-02-12T03:48:16.370Z,100
2023-02-12T03:58:16.423Z,100
2023-02-12T04:08:16.400Z,100
2023-02-12T04:18:16.427Z,100
2023-02-12T04:28:16.492Z,100
2023-02-12T04:38:16.482Z,100
2023-02-12T04:48:16.451Z,100
2023-02-12T04:58:16.503Z,100
2023-02-12T05:08:16.454Z,100
2023-02-12T05:18:16.534Z,100
2023-02-12T05:28:16.523Z,100
2023-02-12T05:38:16.534Z,100
2023-02-12T05:48:16.486Z,100
2023-02-12T05:58:16.554Z,100
2023-02-12T06:08:16.537Z,100
2023-02-12T06:18:16.577Z,100
2023-02-12T06:28:16.607Z,100
2023-02-12T06:38:16.597Z,100
2023-02-12T06:48:16.581Z,100
2023-02-12T06:58:16.670Z,100
2023-02-12T07:08:16.787Z,100
2023-02-12T07:18:16.618Z,100
2023-02-12T07:28:16.651Z,100
2023-02-12T07:38:16.632Z,100
2023-02-12T07:48:16.633Z,100
2023-02-12T07:58:16.659Z,100
2023-02-12T08:08:16.639Z,100
2023-02-12T08:18:17.294Z,100
2023-02-12T08:28:16.718Z,100
2023-02-12T08:38:16.677Z,100
2023-02-12T08:48:16.647Z,100
2023-02-12T08:58:16.675Z,100
2023-02-12T09:08:16.674Z,100
2023-02-12T09:18:16.698Z,93
2023-02-12T09:28:16.720Z,83
2023-02-12T09:38:16.930Z,85
2023-02-12T09:48:16.678Z,78
2023-02-12T09:58:16.686Z,78
2023-02-12T10:08:16.683Z,73
2023-02-12T10:18:16.770Z,66
2023-02-12T10:28:16.712Z,63
2023-02-12T10:38:16.683Z,61
2023-02-12T10:48:17.065Z,56
2023-02-12T10:58:16.706Z,53
2023-02-12T11:08:16.673Z,51
2023-02-12T11:28:16.746Z,51
2023-02-12T11:38:16.621Z,51
2023-02-12T11:48:16.684Z,52
2023-02-12T11:58:16.661Z,54
2023-02-12T12:08:16.864Z,58
2023-02-12T12:18:16.613Z,59
2023-02-12T12:28:16.700Z,59
2023-02-12T12:38:16.612Z,59
2023-02-12T12:48:16.639Z,57
2023-02-12T12:58:16.627Z,57
2023-02-12T13:08:16.695Z,56
2023-02-12T13:18:16.619Z,56
2023-02-12T13:28:16.655Z,55
2023-02-12T13:38:16.626Z,55
2023-02-12T13:48:16.643Z,56
2023-02-12T13:58:16.610Z,55
2023-02-12T14:08:16.640Z,55
2023-02-12T14:18:16.646Z,55
2023-02-12T14:28:16.687Z,55
2023-02-12T14:38:16.614Z,55
2023-02-12T14:48:16.607Z,56
2023-02-12T14:58:16.689Z,57
2023-02-12T15:08:16.628Z,56
2023-02-12T15:18:16.623Z,58
2023-02-12T15:28:16.679Z,61
2023-02-12T15:38:16.579Z,65
2023-02-12T15:48:16.606Z,68
2023-02-12T15:58:16.587Z,80
2023-02-12T16:08:16.627Z,89
2023-02-12T16:18:16.594Z,96
2023-02-12T16:28:16.661Z,100
2023-02-12T16:38:16.579Z,100
2023-02-12T16:48:16.614Z,100
2023-02-12T16:58:16.592Z,100
2023-02-12T17:08:16.629Z,100
2023-02-12T17:18:18.154Z,100
2023-02-12T17:28:16.673Z,100
2023-02-12T17:38:16.607Z,100
2023-02-12T17:48:16.714Z,100
2023-02-12T17:58:16.615Z,100
2023-02-12T18:08:16.654Z,100
2023-02-12T18:18:16.626Z,100
2023-02-12T18:28:16.735Z,100
2023-02-12T18:38:16.657Z,100
2023-02-12T18:48:16.694Z,100
2023-02-12T18:58:16.658Z,100
2023-02-12T19:08:16.687Z,100
2023-02-12T19:18:16.681Z,100
2023-02-12T19:28:16.833Z,100
2023-02-12T19:38:16.711Z,100
2023-02-12T19:48:16.724Z,100
2023-02-12T19:58:16.690Z,100
2023-02-12T20:08:16.767Z,100
2023-02-12T20:18:16.732Z,100
2023-02-12T20:28:16.788Z,100
2023-02-12T20:38:16.745Z,100
2023-02-12T20:48:16.765Z,100
2023-02-12T20:58:16.726Z,100
2023-02-12T21:08:16.978Z,100
2023-02-12T21:18:16.768Z,100
2023-02-12T21:28:16.844Z,100
2023-02-12T21:38:16.781Z,100
2023-02-12T21:48:16.793Z,100
2023-02-12T21:58:16.786Z,100
2023-02-12T22:08:16.812Z,100
2023-02-12T22:18:16.812Z,100
2023-02-12T22:28:16.943Z,100
2023-02-12T22:38:16.825Z,100
2023-02-12T22:48:22.826Z,100
2023-02-12T22:58:16.856Z,100
2023-02-12T23:08:16.855Z,100
2023-02-12T23:18:16.860Z,100
2023-02-12T23:28:16.872Z,100
2023-02-12T23:38:16.942Z,100
2023-02-12T23:48:16.919Z,100
2023-02-12T23:58:16.997Z,100
